Pembroke Lakes, Florida
Current Conditions -  °F | °C
As of 3:53 PM on Thursday 23 Oct 2014 (Local Time) from KHWO Reporting Station
Light Rain Light Rain  
Wind Chill: 74°   Ceiling: 3200
Heat Index: 74°   Visibility: 4mi
Dew Point: 71°   Wind: 13mph
Humidity: 91%   Direction: 30°NNE
Pressure: 29.89"   Gusts: NA
Location:  26.026°N, 80.2963°W
Report Text: KHWO 231953Z 03011KT 4SM -RA BR FEW007 BKN032 OVC045 23/22 A2989 RMK AO2 RAB01 SLP122 P0001 T02330217
Loading
Personal Weather Stations






























Interactive Weather Map
Tropical Storm Tracking
New forecast layout! Learn more

10-Day Weather Forecast

Advertisements
Track Severe Weather on mobile